createdAt,value
2023-04-21T00:08:42.795Z,91.7
2023-04-21T00:18:42.695Z,92.0
2023-04-21T00:28:42.688Z,92.6
2023-04-21T00:38:42.584Z,93.7
2023-04-21T00:48:43.171Z,94.1
2023-04-21T00:58:42.830Z,94.9
2023-04-21T01:08:42.771Z,94.9
2023-04-21T01:18:42.703Z,95.2
2023-04-21T01:28:42.984Z,95.5
2023-04-21T01:38:43.786Z,95.8
2023-04-21T01:48:42.717Z,96.0
2023-04-21T01:58:42.763Z,96.2
2023-04-21T02:08:42.782Z,96.2
2023-04-21T02:18:42.664Z,96.5
2023-04-21T02:28:43.306Z,96.6
2023-04-21T02:38:42.901Z,96.8
2023-04-21T02:48:43.141Z,96.8
2023-04-21T02:58:42.612Z,96.9
2023-04-21T03:08:42.793Z,97.1
2023-04-21T03:18:42.690Z,97.1
2023-04-21T03:28:42.607Z,97.1
2023-04-21T03:38:43.932Z,97.1
2023-04-21T03:48:43.277Z,97.1
2023-04-21T03:58:43.254Z,97.1
2023-04-21T04:08:44.414Z,97.1
2023-04-21T04:18:43.141Z,97.2
2023-04-21T04:28:43.182Z,97.1
2023-04-21T04:38:43.128Z,97.1
2023-04-21T04:48:43.608Z,97.2
2023-04-21T04:58:43.197Z,97.2
2023-04-21T05:08:44.268Z,97.3
2023-04-21T05:18:43.276Z,97.3
2023-04-21T05:28:43.141Z,97.0
2023-04-21T05:38:43.958Z,96.8
2023-04-21T05:48:43.163Z,96.6
2023-04-21T05:58:43.265Z,96.3
2023-04-21T06:08:43.125Z,95.9
2023-04-21T06:18:43.174Z,95.1
2023-04-21T06:28:43.807Z,94.6
2023-04-21T06:38:43.267Z,94.3
2023-04-21T06:48:43.937Z,94.3
2023-04-21T06:58:43.190Z,94.1
2023-04-21T07:08:43.127Z,94.2
2023-04-21T07:18:43.157Z,94.4
2023-04-21T07:28:43.165Z,94.6
2023-04-21T07:38:43.705Z,94.5
2023-04-21T07:48:45.325Z,94.2
2023-04-21T07:58:44.862Z,93.9
2023-04-21T08:08:49.442Z,93.8
2023-04-21T08:18:46.899Z,93.7
2023-04-21T08:28:46.690Z,93.3
2023-04-21T08:38:47.373Z,93.3
2023-04-21T08:48:48.896Z,92.2
2023-04-21T08:58:46.491Z,91.5
2023-04-21T09:08:46.612Z,90.7
2023-04-21T09:18:46.673Z,89.7
2023-04-21T09:28:46.513Z,89.3
2023-04-21T09:38:47.291Z,88.4
2023-04-21T09:48:46.718Z,86.6
2023-04-21T09:58:46.336Z,83.8
2023-04-21T10:08:46.360Z,81.3
2023-04-21T10:18:46.433Z,82.7
2023-04-21T10:28:46.717Z,80.8
2023-04-21T10:38:49.425Z,81.5
2023-04-21T10:48:46.400Z,79.6
2023-04-21T10:58:46.234Z,78.5
2023-04-21T11:08:46.782Z,79.6
2023-04-21T11:18:46.404Z,76.0
2023-04-21T11:28:46.312Z,76.1
2023-04-21T11:38:46.462Z,75.6
2023-04-21T11:48:46.587Z,75.5
2023-04-21T11:58:46.615Z,76.1
2023-04-21T12:08:46.404Z,78.4
2023-04-21T12:18:46.685Z,75.5
2023-04-21T12:28:46.308Z,74.7
2023-04-21T12:38:46.378Z,72.3
2023-04-21T12:48:46.352Z,70.4
2023-04-21T12:58:46.610Z,71.4
2023-04-21T13:08:46.361Z,67.9
2023-04-21T13:18:49.965Z,69.6
2023-04-21T13:28:46.357Z,67.9
2023-04-21T13:38:46.325Z,66.7
2023-04-21T13:48:46.310Z,66.5
2023-04-21T13:58:46.535Z,66.8
2023-04-21T14:08:46.568Z,65.8
2023-04-21T14:18:46.478Z,67.2
2023-04-21T14:28:46.443Z,66.5
2023-04-21T14:38:46.551Z,69.0
2023-04-21T14:48:46.636Z,67.4
2023-04-21T14:58:46.395Z,68.8
2023-04-21T15:08:46.548Z,68.5
2023-04-21T15:18:46.422Z,73.4
2023-04-21T15:28:47.116Z,76.4
2023-04-21T15:38:46.320Z,74.3
2023-04-21T15:48:46.855Z,70.0
2023-04-21T15:58:47.258Z,69.3
2023-04-21T16:08:46.273Z,69.2
2023-04-21T16:18:46.356Z,69.3
2023-04-21T16:28:46.964Z,68.3
2023-04-21T16:38:46.399Z,69.2
2023-04-21T16:48:46.457Z,70.8
2023-04-21T16:58:46.872Z,70.7
2023-04-21T17:08:46.553Z,69.0
2023-04-21T17:18:46.295Z,69.3
2023-04-21T17:28:46.328Z,69.8
2023-04-21T17:38:46.706Z,71.3
2023-04-21T17:48:46.780Z,72.4
2023-04-21T17:58:46.306Z,71.7
2023-04-21T18:08:46.975Z,73.4
2023-04-21T18:18:46.637Z,75.0
2023-04-21T18:28:46.345Z,76.1
2023-04-21T18:38:46.373Z,78.5
2023-04-21T18:48:46.491Z,70.7
2023-04-21T18:58:46.487Z,74.5
2023-04-21T19:08:47.243Z,83.0
2023-04-21T19:18:47.578Z,85.0
2023-04-21T19:28:46.362Z,86.3
2023-04-21T19:38:46.395Z,88.7
2023-04-21T19:48:46.313Z,90.1
2023-04-21T19:58:46.323Z,91.7
2023-04-21T20:08:46.382Z,91.9
2023-04-21T20:18:46.328Z,92.8
2023-04-21T20:28:46.748Z,93.4
2023-04-21T20:38:46.605Z,93.5
2023-04-21T20:48:47.759Z,91.1
2023-04-21T20:58:46.817Z,89.4
2023-04-21T21:08:46.542Z,88.1
2023-04-21T21:18:46.529Z,88.5
2023-04-21T21:28:46.599Z,83.5
2023-04-21T21:38:46.474Z,84.6
2023-04-21T21:48:46.531Z,85.7
2023-04-21T21:58:46.905Z,87.6
2023-04-21T22:08:46.708Z,90.6
2023-04-21T22:18:46.836Z,90.6
2023-04-21T22:28:46.910Z,92.6
2023-04-21T22:38:47.498Z,93.3
2023-04-21T22:48:46.386Z,93.1
2023-04-21T22:58:46.331Z,93.3
2023-04-21T23:08:47.748Z,93.6
2023-04-21T23:18:47.111Z,94.0
2023-04-21T23:28:49.296Z,94.3
2023-04-21T23:38:48.388Z,94.8
2023-04-21T23:48:47.080Z,95.3
2023-04-21T23:58:46.381Z,95.9
